Bookmark and Share
Track history (hours):
 

Euro IV

Last reported at 2014-Mar-30 14:33 UTC. Time now 2014-Apr-24 13:55 UTC.
Position N 44°03' E 009°51'.
Warning: this ship's position is 24 days out of date.

Length 25 m; draft 1.3 m.

Type: Passenger vessel. MMSI: 247131500.

NotesDate/timePositionNaut miles runAvg speedWind from/ knotsBaromVisibWave heightAir tempDewpointWater temp
2014-Mar-30 14:33N 44°03' E 009°51'8 7.6
2014-Mar-30 13:33N 44°07' E 009°42'2 2.3
2014-Mar-30 12:33N 44°09' E 009°39'0 0.0
2014-Mar-30 11:33N 44°09' E 009°39'0 0.0
2014-Mar-30 10:33N 44°09' E 009°39'4 4.3
2014-Mar-30 09:30N 44°06' E 009°44'5 5.5
2014-Mar-30 08:34N 44°03' E 009°50'3 3.1
2014-Mar-30 07:34N 44°06' E 009°50'0 0.0
2014-Mar-29 17:10N 44°06' E 009°50'4 6.3
2014-Mar-29 16:33N 44°05' E 009°54'3 3.3
2014-Mar-29 15:33N 44°03' E 009°50'0 0.0
2014-Mar-29 14:33N 44°03' E 009°50'0 0.0
2014-Mar-29 13:33N 44°03' E 009°50'0 0.0
2014-Mar-29 12:33N 44°03' E 009°50'0 0.5
2014-Mar-29 11:33N 44°03' E 009°50'4 1.8
2014-Mar-29 09:33N 44°04' E 009°55'  
2014-Mar-25 09:10N 44°06' E 009°50'4 7.4
2014-Mar-25 08:34N 44°02' E 009°51'1 0.8
2014-Mar-25 07:33N 44°03' E 009°51'  

Dump ship's entire track history

sailing weather and tide predictions

Euro IV — IQNH — position and weather